createdAt,value
2022-09-15T00:00:11.531Z,69.33
2022-09-15T00:03:14.073Z,69.78
2022-09-15T00:06:16.452Z,70.36
2022-09-15T00:09:18.757Z,70.57
2022-09-15T00:12:20.718Z,70.81
2022-09-15T00:15:23.138Z,71.45
2022-09-15T00:18:25.405Z,71.69
2022-09-15T00:21:32.021Z,72.24
2022-09-15T00:24:34.021Z,72.69
2022-09-15T00:27:36.640Z,72.60
2022-09-15T00:30:47.435Z,72.93
2022-09-15T00:33:50.744Z,72.71
2022-09-15T00:36:52.681Z,73.31
2022-09-15T00:39:55.111Z,73.74
2022-09-15T00:42:57.191Z,73.87
2022-09-15T00:45:59.491Z,73.63
2022-09-15T00:49:09.537Z,73.77
2022-09-15T00:52:17.292Z,73.74
2022-09-15T00:55:22.541Z,73.92
2022-09-15T00:58:30.800Z,73.62
2022-09-15T01:01:33.067Z,73.85
2022-09-15T01:04:35.563Z,73.80
2022-09-15T01:07:43.270Z,73.92
2022-09-15T01:10:46.761Z,74.00
2022-09-15T01:13:48.749Z,74.57
2022-09-15T01:17:04.375Z,74.87
2022-09-15T01:20:16.337Z,74.91
2022-09-15T01:23:42.743Z,75.42
2022-09-15T01:26:50.578Z,75.13
2022-09-15T01:29:58.592Z,75.45
2022-09-15T01:33:10.717Z,75.75
2022-09-15T01:36:24.288Z,75.68
2022-09-15T01:39:29.593Z,75.37
2022-09-15T01:42:32.505Z,75.16
2022-09-15T01:45:35.692Z,74.63
2022-09-15T01:48:39.844Z,74.50
2022-09-15T01:51:43.140Z,74.33
2022-09-15T01:54:49.127Z,73.86
2022-09-15T01:57:51.600Z,73.71
2022-09-15T02:00:57.795Z,73.64
2022-09-15T02:04:03.098Z,73.48
2022-09-15T02:07:31.953Z,73.48
2022-09-15T02:10:34.187Z,73.41
2022-09-15T02:13:42.859Z,73.36
2022-09-15T02:16:48.148Z,73.28
2022-09-15T02:19:53.959Z,73.29
2022-09-15T02:22:57.304Z,73.24
2022-09-15T02:26:06.324Z,73.13
2022-09-15T02:29:10.863Z,73.12
2022-09-15T02:32:13.850Z,73.20
2022-09-15T02:35:16.959Z,73.37
2022-09-15T02:38:18.952Z,73.58
2022-09-15T02:41:21.265Z,73.61
2022-09-15T02:44:23.430Z,73.70
2022-09-15T02:47:25.895Z,73.71
2022-09-15T02:50:27.918Z,73.71
2022-09-15T02:53:30.181Z,73.59
2022-09-15T02:56:32.171Z,73.47
2022-09-15T02:59:53.186Z,73.35
2022-09-15T03:02:57.714Z,73.29
2022-09-15T03:06:16.541Z,73.34
2022-09-15T03:09:21.380Z,73.18
2022-09-15T03:12:24.543Z,73.25
2022-09-15T03:15:27.221Z,73.11
2022-09-15T03:18:29.460Z,72.86
2022-09-15T03:21:31.533Z,72.81
2022-09-15T03:24:35.023Z,72.62
2022-09-15T03:27:37.058Z,72.44
2022-09-15T03:30:39.373Z,72.26
2022-09-15T03:33:41.521Z,72.08
2022-09-15T03:36:43.823Z,72.05
2022-09-15T03:39:47.150Z,72.45
2022-09-15T03:42:52.298Z,72.91
2022-09-15T03:45:57.580Z,73.11
2022-09-15T03:48:59.876Z,73.13
2022-09-15T03:52:02.128Z,73.24
2022-09-15T03:55:04.527Z,73.07
2022-09-15T03:58:09.748Z,73.59
2022-09-15T04:01:15.191Z,74.12
2022-09-15T04:04:19.545Z,74.84
2022-09-15T04:07:23.742Z,74.31
2022-09-15T04:10:29.378Z,74.57
2022-09-15T04:13:36.957Z,74.00
2022-09-15T04:16:39.467Z,73.50
2022-09-15T04:19:41.632Z,72.95
2022-09-15T04:22:44.674Z,72.71
2022-09-15T04:26:00.079Z,72.59
2022-09-15T04:29:04.686Z,72.27
2022-09-15T04:32:07.809Z,72.10
2022-09-15T04:35:10.389Z,72.01
2022-09-15T04:38:12.449Z,72.10
2022-09-15T04:41:15.033Z,72.16
2022-09-15T04:44:17.226Z,72.30
2022-09-15T04:47:19.556Z,72.16
2022-09-15T04:50:22.505Z,72.57
2022-09-15T04:53:24.776Z,72.89
2022-09-15T04:56:27.318Z,73.23
2022-09-15T04:59:29.902Z,73.75
2022-09-15T05:02:32.888Z,74.15
2022-09-15T05:05:35.158Z,74.00
2022-09-15T05:08:38.931Z,74.66
2022-09-15T05:11:41.303Z,74.61
2022-09-15T05:14:43.302Z,75.05
2022-09-15T05:17:45.752Z,75.51
2022-09-15T05:20:47.723Z,76.06
2022-09-15T05:23:51.983Z,75.99
2022-09-15T05:26:54.229Z,76.28
2022-09-15T05:30:09.959Z,77.01
2022-09-15T05:33:19.128Z,76.83
2022-09-15T05:36:24.981Z,76.78
2022-09-15T05:39:27.106Z,76.89
2022-09-15T05:42:30.003Z,77.08
2022-09-15T05:45:32.721Z,77.12
2022-09-15T05:48:36.158Z,77.88
2022-09-15T05:51:38.135Z,77.76
2022-09-15T05:54:40.476Z,77.62
2022-09-15T05:57:42.479Z,77.49
2022-09-15T06:00:44.757Z,77.78
2022-09-15T06:03:48.162Z,77.72
2022-09-15T06:06:50.149Z,77.69
2022-09-15T06:09:52.428Z,77.38
2022-09-15T06:12:55.072Z,77.60
2022-09-15T06:16:05.448Z,77.34
2022-09-15T06:19:07.674Z,77.11
2022-09-15T06:22:09.940Z,76.99
2022-09-15T06:25:13.203Z,76.50
2022-09-15T06:28:15.711Z,76.20
2022-09-15T06:31:18.397Z,76.15
2022-09-15T06:34:20.966Z,75.73
2022-09-15T06:37:22.986Z,75.20
2022-09-15T06:40:25.901Z,75.03
2022-09-15T06:43:28.044Z,74.56
2022-09-15T06:46:30.399Z,74.48
2022-09-15T06:49:32.403Z,73.97
2022-09-15T06:52:35.057Z,73.57
2022-09-15T06:55:37.077Z,73.22
2022-09-15T06:58:40.514Z,73.00
2022-09-15T07:01:43.121Z,72.67
2022-09-15T07:04:45.467Z,72.55
2022-09-15T07:07:47.961Z,72.48
2022-09-15T07:10:50.247Z,72.80
2022-09-15T07:13:52.517Z,72.71
2022-09-15T07:16:54.791Z,72.46
2022-09-15T07:19:57.281Z,72.44
2022-09-15T07:22:59.509Z,72.03
2022-09-15T07:26:05.492Z,71.63
2022-09-15T07:29:07.810Z,71.55
2022-09-15T07:32:09.986Z,71.12
2022-09-15T07:35:12.638Z,69.91
2022-09-15T07:38:14.617Z,68.37
2022-09-15T07:41:18.800Z,66.63
2022-09-15T07:44:20.863Z,64.92
2022-09-15T07:47:23.249Z,62.70
2022-09-15T07:50:25.314Z,60.49
2022-09-15T07:53:28.245Z,57.96
2022-09-15T07:56:30.270Z,58.02
2022-09-15T07:59:32.923Z,56.18
2022-09-15T08:02:34.929Z,55.28
2022-09-15T08:05:40.286Z,55.04
2022-09-15T08:08:44.491Z,54.77
2022-09-15T08:11:46.778Z,54.42
2022-09-15T08:14:50.298Z,54.69
2022-09-15T08:17:52.556Z,53.07
2022-09-15T08:20:54.606Z,51.81
2022-09-15T08:23:58.179Z,50.90
2022-09-15T08:27:00.166Z,49.05
2022-09-15T08:30:02.473Z,48.95
2022-09-15T08:33:05.487Z,48.21
2022-09-15T08:36:10.914Z,47.96
2022-09-15T08:39:12.997Z,46.96
2022-09-15T08:42:16.563Z,46.10
2022-09-15T08:45:22.519Z,45.57
2022-09-15T08:48:27.426Z,44.47
2022-09-15T08:51:32.408Z,45.00
2022-09-15T08:54:34.687Z,43.60
2022-09-15T08:57:36.878Z,43.90
2022-09-15T09:00:39.875Z,41.88
2022-09-15T09:03:48.607Z,40.98
2022-09-15T09:06:59.923Z,40.98
2022-09-15T09:10:10.810Z,40.15
2022-09-15T09:13:37.349Z,39.10
2022-09-15T09:16:58.159Z,38.34
2022-09-15T09:20:09.843Z,37.03
2022-09-15T09:23:15.867Z,35.83
2022-09-15T09:26:18.395Z,35.95
2022-09-15T09:29:26.924Z,36.69
2022-09-15T09:32:49.490Z,35.82
2022-09-15T09:35:52.318Z,36.51
2022-09-15T09:38:55.727Z,34.90
2022-09-15T09:41:59.167Z,37.12
2022-09-15T09:45:01.617Z,35.83
2022-09-15T09:48:13.526Z,36.75
2022-09-15T09:51:32.794Z,37.11
2022-09-15T09:54:35.655Z,38.61
2022-09-15T09:57:40.681Z,37.88
2022-09-15T10:00:43.068Z,38.03
2022-09-15T10:03:45.956Z,37.98
2022-09-15T10:06:48.815Z,37.94
2022-09-15T10:10:01.120Z,38.02
2022-09-15T10:13:03.602Z,38.45
2022-09-15T10:16:06.675Z,38.89
2022-09-15T10:19:12.277Z,39.48
2022-09-15T10:22:30.013Z,40.13
2022-09-15T10:25:55.018Z,40.25
2022-09-15T10:29:08.898Z,40.43
2022-09-15T10:32:24.956Z,40.35
2022-09-15T10:35:32.781Z,41.27
2022-09-15T10:38:37.538Z,41.61
2022-09-15T10:41:46.319Z,41.49
2022-09-15T10:45:03.869Z,41.95
2022-09-15T10:48:18.634Z,42.07
2022-09-15T10:51:39.500Z,41.90
2022-09-15T10:54:51.143Z,41.75
2022-09-15T10:58:02.535Z,42.31
2022-09-15T11:01:28.371Z,42.45
2022-09-15T11:04:33.260Z,42.95
2022-09-15T11:07:46.454Z,43.03
2022-09-15T11:11:09.179Z,43.44
2022-09-15T11:14:26.759Z,43.87
2022-09-15T11:17:31.754Z,43.81
2022-09-15T11:20:39.220Z,44.41
2022-09-15T11:23:48.317Z,45.20
2022-09-15T11:26:56.847Z,45.35
2022-09-15T11:30:04.393Z,45.47
2022-09-15T11:33:19.168Z,47.09
2022-09-15T11:36:35.398Z,48.33
2022-09-15T11:39:44.852Z,48.90
2022-09-15T11:42:52.871Z,51.12
2022-09-15T11:45:56.483Z,50.68
2022-09-15T11:49:05.188Z,51.68
2022-09-15T11:52:35.016Z,55.06
2022-09-15T12:07:22.933Z,55.44
2022-09-15T12:10:51.944Z,55.42
2022-09-15T12:45:31.055Z,57.86
2022-09-15T12:48:35.723Z,57.75
2022-09-15T12:51:37.896Z,58.54
2022-09-15T12:54:42.102Z,59.27
2022-09-15T12:57:50.440Z,59.45
2022-09-15T13:01:18.060Z,59.75
2022-09-15T13:04:26.542Z,60.74
2022-09-15T13:07:33.485Z,62.23
2022-09-15T13:10:37.013Z,63.47
2022-09-15T13:13:45.432Z,64.97
2022-09-15T13:17:03.811Z,72.53
2022-09-15T13:20:15.190Z,74.82
2022-09-15T13:23:19.279Z,75.76
2022-09-15T13:26:24.098Z,80.12
2022-09-15T13:29:28.933Z,83.96
2022-09-15T13:32:50.583Z,85.48
2022-09-15T13:35:52.557Z,85.40
2022-09-15T13:38:57.922Z,85.30
2022-09-15T13:42:18.383Z,86.90
2022-09-15T13:45:33.952Z,88.17
2022-09-15T13:48:42.024Z,89.38
2022-09-15T13:51:53.219Z,90.27
2022-09-15T13:55:14.033Z,91.46
2022-09-15T14:01:42.170Z,91.51
2022-09-15T14:04:51.874Z,91.39
2022-09-15T14:08:01.250Z,92.01
2022-09-15T14:11:09.150Z,91.87
2022-09-15T14:14:21.253Z,91.05
2022-09-15T14:17:28.714Z,91.35
2022-09-15T14:20:32.561Z,91.94
2022-09-15T14:23:43.584Z,92.29
2022-09-15T14:26:45.652Z,92.53
2022-09-15T14:29:50.214Z,92.01
2022-09-15T14:32:54.448Z,92.61
2022-09-15T14:35:56.672Z,92.96
2022-09-15T14:39:11.068Z,92.47
2022-09-15T14:42:22.978Z,92.65
2022-09-15T14:45:58.338Z,88.93
2022-09-15T14:49:09.063Z,89.95
2022-09-15T14:52:32.933Z,90.30
2022-09-15T14:55:55.660Z,90.65
2022-09-15T14:58:59.767Z,90.55
2022-09-15T15:02:17.823Z,90.46
2022-09-15T15:05:23.216Z,91.95
2022-09-15T15:08:45.826Z,93.59
2022-09-15T15:11:54.848Z,93.96
2022-09-15T15:14:58.727Z,95.09
2022-09-15T15:18:00.868Z,94.60
2022-09-15T15:21:03.961Z,94.25
2022-09-15T15:24:16.354Z,93.76
2022-09-15T15:27:24.418Z,92.05
2022-09-15T15:30:32.121Z,92.11
2022-09-15T15:33:34.482Z,92.67
2022-09-15T15:36:36.586Z,91.31
2022-09-15T15:39:38.912Z,91.77
2022-09-15T15:42:57.824Z,90.94
2022-09-15T15:46:03.667Z,91.06
2022-09-15T15:49:09.619Z,90.76
2022-09-15T15:52:11.898Z,91.39
2022-09-15T15:55:15.666Z,90.38
2022-09-15T15:58:17.933Z,91.07
2022-09-15T16:01:21.543Z,91.10
2022-09-15T16:04:23.840Z,90.66
2022-09-15T16:07:29.908Z,91.32
2022-09-15T16:10:38.695Z,91.68
2022-09-15T16:13:41.768Z,91.37
2022-09-15T16:16:44.649Z,91.47
2022-09-15T16:19:46.830Z,91.64
2022-09-15T16:22:49.105Z,92.16
2022-09-15T16:25:54.287Z,92.13
2022-09-15T16:28:56.628Z,92.52
2022-09-15T16:31:58.871Z,92.52
2022-09-15T16:35:01.131Z,92.38
2022-09-15T16:38:03.165Z,92.55
2022-09-15T16:41:16.015Z,92.12
2022-09-15T16:44:19.119Z,90.88
2022-09-15T16:47:45.715Z,91.18
2022-09-15T16:51:16.887Z,91.64
2022-09-15T16:54:15.345Z,91.55
2022-09-15T16:57:19.450Z,91.49
2022-09-15T17:00:21.752Z,92.63
2022-09-15T17:03:24.739Z,91.93
2022-09-15T17:06:27.164Z,91.23
2022-09-15T17:09:29.187Z,91.61
2022-09-15T17:12:31.732Z,91.04
2022-09-15T17:15:35.395Z,91.35
2022-09-15T17:18:37.774Z,91.14
2022-09-15T17:21:40.267Z,92.10
2022-09-15T17:24:42.526Z,92.91
2022-09-15T17:27:44.586Z,93.46
2022-09-15T17:30:48.925Z,92.46
2022-09-15T17:33:51.841Z,92.99
2022-09-15T17:36:54.123Z,93.31
2022-09-15T17:39:59.063Z,93.51
2022-09-15T17:43:02.089Z,93.28
2022-09-15T17:46:04.222Z,93.06
2022-09-15T17:49:06.781Z,93.19
2022-09-15T17:52:08.959Z,93.08
2022-09-15T17:55:16.256Z,91.97
2022-09-15T17:58:18.656Z,90.75
2022-09-15T18:01:21.009Z,90.99
2022-09-15T18:04:23.351Z,92.68
2022-09-15T18:07:25.325Z,93.34
2022-09-15T18:10:30.379Z,93.55
2022-09-15T18:13:33.497Z,93.84
2022-09-15T18:16:35.798Z,93.72
2022-09-15T18:19:37.852Z,94.08
2022-09-15T18:22:40.459Z,94.06
2022-09-15T18:25:42.727Z,94.01
2022-09-15T18:28:45.076Z,92.64
2022-09-15T18:31:47.155Z,93.28
2022-09-15T18:34:49.484Z,92.53
2022-09-15T18:37:56.033Z,92.59
2022-09-15T18:41:00.203Z,92.17
2022-09-15T18:44:03.038Z,92.01
2022-09-15T18:47:06.326Z,92.16
2022-09-15T18:50:09.701Z,92.37
2022-09-15T18:53:14.093Z,92.37
2022-09-15T18:56:16.440Z,92.02
2022-09-15T18:59:19.329Z,91.53
2022-09-15T19:02:21.454Z,91.29
2022-09-15T19:05:24.192Z,91.71
2022-09-15T19:08:26.155Z,91.89
2022-09-15T19:11:29.336Z,90.53
2022-09-15T19:14:34.137Z,89.88
2022-09-15T19:17:36.702Z,89.79
2022-09-15T19:20:40.222Z,90.92
2022-09-15T19:23:43.609Z,91.97
2022-09-15T19:26:47.223Z,92.18
2022-09-15T19:29:49.593Z,92.28
2022-09-15T19:32:51.595Z,92.67
2022-09-15T19:36:10.872Z,92.54
2022-09-15T19:39:16.278Z,92.52
2022-09-15T19:42:18.604Z,92.51
2022-09-15T19:45:23.307Z,92.28
2022-09-15T19:48:25.710Z,92.22
2022-09-15T19:51:27.852Z,91.85
2022-09-15T19:54:30.571Z,91.85
2022-09-15T19:57:32.602Z,91.32
2022-09-15T20:00:35.299Z,88.13
2022-09-15T20:03:37.902Z,88.51
2022-09-15T20:06:42.413Z,87.76
2022-09-15T20:09:44.811Z,87.96
2022-09-15T20:13:29.989Z,88.09
2022-09-15T20:16:45.751Z,87.58
2022-09-15T20:19:47.816Z,87.61
2022-09-15T20:22:50.127Z,88.69
2022-09-15T20:25:59.485Z,88.23
2022-09-15T20:29:02.295Z,87.39
2022-09-15T20:32:04.421Z,87.02
2022-09-15T20:35:07.738Z,87.44
2022-09-15T20:38:09.737Z,87.46
2022-09-15T20:41:12.868Z,87.93
2022-09-15T20:44:14.950Z,88.66
2022-09-15T20:47:17.597Z,88.51
2022-09-15T20:50:20.111Z,89.04
2022-09-15T20:53:28.298Z,88.63
2022-09-15T20:56:31.651Z,89.44
2022-09-15T20:59:33.907Z,88.74
2022-09-15T21:02:36.239Z,87.27
2022-09-15T21:05:38.613Z,87.21
2022-09-15T21:08:40.623Z,87.87
2022-09-15T21:11:43.472Z,87.68
2022-09-15T21:14:45.502Z,87.22
2022-09-15T21:17:47.804Z,87.40
2022-09-15T21:20:54.229Z,87.96
2022-09-15T21:23:58.653Z,88.79
2022-09-15T21:27:19.408Z,88.94
2022-09-15T21:30:21.738Z,89.43
2022-09-15T21:33:23.732Z,88.34
2022-09-15T21:36:27.631Z,88.62
2022-09-15T21:39:29.679Z,88.66
2022-09-15T21:42:31.934Z,89.41
2022-09-15T21:45:33.932Z,89.60
2022-09-15T21:48:36.259Z,89.80
2022-09-15T21:51:38.217Z,89.54
2022-09-15T21:54:40.665Z,89.57
2022-09-15T21:57:42.632Z,89.72
2022-09-15T22:00:45.501Z,89.47
2022-09-15T22:03:49.799Z,89.61
2022-09-15T22:06:52.900Z,89.34
2022-09-15T22:09:57.183Z,87.37
2022-09-15T22:12:59.160Z,88.24
2022-09-15T22:16:05.731Z,86.87
2022-09-15T22:19:09.688Z,86.85
2022-09-15T22:22:12.010Z,87.54
2022-09-15T22:25:19.802Z,86.23
2022-09-15T22:28:24.044Z,86.96
2022-09-15T22:31:27.519Z,87.95
2022-09-15T22:34:32.567Z,88.45
2022-09-15T22:37:35.637Z,88.88
2022-09-15T22:40:37.982Z,88.22
2022-09-15T22:43:40.792Z,88.65
2022-09-15T22:46:44.150Z,88.21
2022-09-15T22:49:46.164Z,87.66
2022-09-15T22:52:48.392Z,87.23
2022-09-15T22:55:50.611Z,87.20
2022-09-15T22:58:52.977Z,88.08
2022-09-15T23:01:55.222Z,87.68
2022-09-15T23:04:57.578Z,87.99
2022-09-15T23:07:59.553Z,87.51
2022-09-15T23:11:13.231Z,87.49
2022-09-15T23:14:16.866Z,87.76
2022-09-15T23:17:19.621Z,87.50
2022-09-15T23:20:21.662Z,86.31
2022-09-15T23:23:24.054Z,86.58
2022-09-15T23:26:26.767Z,86.58
2022-09-15T23:29:29.038Z,86.05
2022-09-15T23:32:30.999Z,86.38
2022-09-15T23:35:33.260Z,85.93
2022-09-15T23:38:36.186Z,85.54
2022-09-15T23:41:39.268Z,85.08
2022-09-15T23:44:41.252Z,84.73
2022-09-15T23:47:43.499Z,84.69
2022-09-15T23:50:45.809Z,84.62
2022-09-15T23:53:48.185Z,84.89
2022-09-15T23:56:50.150Z,85.35
2022-09-15T23:59:52.497Z,85.64
